createdAt,value
2016-05-18T00:00:07.603Z,0
2016-05-18T00:01:07.652Z,0
2016-05-18T00:02:07.672Z,0
2016-05-18T00:03:07.721Z,0
2016-05-18T00:04:07.599Z,0
2016-05-18T00:05:07.789Z,0
2016-05-18T00:06:07.838Z,0
2016-05-18T00:07:07.841Z,0
2016-05-18T00:08:08.312Z,0
2016-05-18T00:09:07.924Z,0
2016-05-18T00:10:07.974Z,0
2016-05-18T00:11:08.008Z,0
2016-05-18T00:12:08.041Z,0
2016-05-18T00:13:08.076Z,0
2016-05-18T00:14:07.969Z,0
2016-05-18T00:15:08.159Z,0
2016-05-18T00:16:08.177Z,0
2016-05-18T00:17:08.227Z,0
2016-05-18T00:18:08.105Z,0
2016-05-18T00:19:08.295Z,0
2016-05-18T00:20:08.329Z,0
2016-05-18T00:21:08.378Z,0
2016-05-18T00:22:08.412Z,0
2016-05-18T00:23:08.181Z,0
2016-05-18T00:24:08.480Z,0
2016-05-18T00:25:08.515Z,0
2016-05-18T00:26:08.548Z,0
2016-05-18T00:27:08.581Z,0
2016-05-18T00:28:08.631Z,0
2016-05-18T00:29:08.666Z,0
2016-05-18T00:30:08.559Z,0
2016-05-18T00:31:08.733Z,0
2016-05-18T00:32:08.784Z,0
2016-05-18T00:33:08.802Z,0
2016-05-18T00:34:08.850Z,0
2016-05-18T00:35:08.885Z,0
2016-05-18T00:36:08.919Z,0
2016-05-18T00:37:08.952Z,0
2016-05-18T00:38:08.847Z,0
2016-05-18T00:39:09.052Z,0
2016-05-18T00:40:09.070Z,0
2016-05-18T00:41:09.120Z,0
2016-05-18T00:42:09.138Z,0
2016-05-18T00:43:09.187Z,0
2016-05-18T00:44:09.238Z,0
2016-05-18T00:45:09.255Z,0
2016-05-18T00:46:09.290Z,0
2016-05-18T00:47:09.323Z,0
2016-05-18T00:48:09.357Z,0
2016-05-18T00:49:09.406Z,0
2016-05-18T00:50:09.441Z,0
2016-05-18T00:51:09.475Z,0
2016-05-18T00:52:09.509Z,0
2016-05-18T00:53:09.246Z,0
2016-05-18T00:54:09.576Z,0
2016-05-18T00:55:09.626Z,0
2016-05-18T00:56:09.659Z,0
2016-05-18T00:57:09.694Z,0
2016-05-18T00:58:09.572Z,0
2016-05-18T00:59:09.762Z,0
2016-05-18T01:00:09.811Z,0
2016-05-18T01:01:09.845Z,0
2016-05-18T01:02:09.864Z,0
2016-05-18T01:03:09.913Z,0
2016-05-18T01:04:09.947Z,0
2016-05-18T01:05:09.841Z,0
2016-05-18T01:06:10.062Z,0
2016-05-18T01:07:10.064Z,0
2016-05-18T01:08:10.364Z,0
2016-05-18T01:09:10.133Z,0
2016-05-18T01:10:10.166Z,0
2016-05-18T01:11:10.216Z,0
2016-05-18T01:12:10.265Z,0
2016-05-18T01:13:10.394Z,0
2016-05-18T01:14:10.318Z,0
2016-05-18T01:15:10.351Z,0
2016-05-18T01:16:10.385Z,0
2016-05-18T01:17:10.279Z,0
2016-05-18T01:18:10.469Z,0
2016-05-18T01:19:10.503Z,0
2016-05-18T01:20:10.538Z,0
2016-05-18T01:21:10.587Z,0
2016-05-18T01:22:10.449Z,0
2016-05-18T01:23:11.107Z,0
2016-05-18T01:24:10.688Z,0
2016-05-18T01:25:10.723Z,0
2016-05-18T01:26:10.756Z,0
2016-05-18T01:27:10.790Z,0
2016-05-18T01:28:10.840Z,0
2016-05-18T01:29:10.873Z,0
2016-05-18T01:30:10.751Z,0
2016-05-18T01:31:10.941Z,0
2016-05-18T01:32:10.976Z,0
2016-05-18T01:33:11.025Z,0
2016-05-18T01:34:11.044Z,0
2016-05-18T01:35:10.952Z,0
2016-05-18T01:36:11.127Z,0
2016-05-18T01:37:11.177Z,0
2016-05-18T01:38:11.538Z,0
2016-05-18T01:39:11.229Z,0
2016-05-18T01:40:11.107Z,0
2016-05-18T01:41:11.313Z,0
2016-05-18T01:42:11.346Z,0
2016-05-18T01:43:11.224Z,0
2016-05-18T01:44:11.414Z,0
2016-05-18T01:45:11.463Z,0
2016-05-18T01:46:11.482Z,0
2016-05-18T01:47:11.376Z,0
2016-05-18T01:48:11.425Z,0
2016-05-18T01:49:11.599Z,0
2016-05-18T01:50:11.634Z,0
2016-05-18T01:51:11.667Z,0
2016-05-18T01:52:11.717Z,0
2016-05-18T01:53:11.829Z,0
2016-05-18T01:54:11.784Z,0
2016-05-18T01:55:11.818Z,0
2016-05-18T01:56:11.696Z,0
2016-05-18T01:57:11.887Z,0
2016-05-18T01:58:11.936Z,0
2016-05-18T01:59:11.970Z,0
2016-05-18T02:00:12.004Z,0
2016-05-18T02:01:12.038Z,0
2016-05-18T02:02:11.917Z,0
2016-05-18T02:03:11.950Z,0
2016-05-18T02:04:12.155Z,0
2016-05-18T02:05:12.189Z,0
2016-05-18T02:06:12.239Z,0
2016-05-18T02:07:12.257Z,0
2016-05-18T02:08:12.307Z,0
2016-05-18T02:09:12.341Z,0
2016-05-18T02:10:12.358Z,0
2016-05-18T02:11:12.253Z,0
2016-05-18T02:12:12.443Z,0
2016-05-18T02:13:12.335Z,0
2016-05-18T02:14:12.527Z,0
2016-05-18T02:15:12.560Z,0
2016-05-18T02:16:12.438Z,0
2016-05-18T02:17:12.627Z,0
2016-05-18T02:18:12.662Z,0
2016-05-18T02:19:12.540Z,0
2016-05-18T02:20:12.729Z,0
2016-05-18T02:21:12.623Z,0
2016-05-18T02:22:12.657Z,0
2016-05-18T02:23:12.816Z,0
2016-05-18T02:24:12.896Z,0
2016-05-18T02:25:12.774Z,0
2016-05-18T02:26:12.949Z,0
2016-05-18T02:27:12.983Z,0
2016-05-18T02:28:13.032Z,0
2016-05-18T02:29:13.066Z,0
2016-05-18T02:30:13.101Z,0
2016-05-18T02:31:13.134Z,0
2016-05-18T02:32:13.200Z,0
2016-05-18T02:33:13.217Z,0
2016-05-18T02:34:13.080Z,0
2016-05-18T02:35:13.286Z,0
2016-05-18T02:36:13.320Z,0
2016-05-18T02:37:13.353Z,0
2016-05-18T02:38:14.075Z,0
2016-05-18T02:39:13.437Z,0
2016-05-18T02:40:13.471Z,0
2016-05-18T02:41:13.505Z,0
2016-05-18T02:42:13.539Z,0
2016-05-18T02:43:13.572Z,4
2016-05-18T02:44:13.622Z,4
2016-05-18T02:45:13.499Z,0
2016-05-18T02:46:13.691Z,0
2016-05-18T02:47:13.724Z,4
2016-05-18T02:48:13.602Z,4
2016-05-18T02:49:13.792Z,0
2016-05-18T02:50:13.842Z,4
2016-05-18T02:51:13.719Z,4
2016-05-18T02:52:13.909Z,8
2016-05-18T02:53:14.444Z,4
2016-05-18T02:54:13.821Z,4
2016-05-18T02:55:14.026Z,8
2016-05-18T02:56:14.045Z,4
2016-05-18T02:57:14.095Z,8
2016-05-18T02:58:14.129Z,8
2016-05-18T02:59:14.162Z,8
2016-05-18T03:00:14.197Z,12
2016-05-18T03:01:14.231Z,8
2016-05-18T03:02:14.264Z,12
2016-05-18T03:03:14.298Z,12
2016-05-18T03:04:14.348Z,16
2016-05-18T03:05:14.429Z,20
2016-05-18T03:06:14.416Z,20
2016-05-18T03:07:14.450Z,20
2016-05-18T03:08:15.014Z,24
2016-05-18T03:09:14.533Z,28
2016-05-18T03:10:14.567Z,28
2016-05-18T03:11:14.444Z,32
2016-05-18T03:12:14.636Z,32
2016-05-18T03:13:14.669Z,32
2016-05-18T03:14:14.546Z,36
2016-05-18T03:15:14.752Z,40
2016-05-18T03:16:14.786Z,40
2016-05-18T03:17:14.821Z,44
2016-05-18T03:18:14.854Z,48
2016-05-18T03:19:14.889Z,52
2016-05-18T03:20:14.922Z,56
2016-05-18T03:21:14.799Z,56
2016-05-18T03:22:15.006Z,64
2016-05-18T03:23:15.039Z,68
2016-05-18T03:24:15.308Z,68
2016-05-18T03:25:14.967Z,72
2016-05-18T03:26:15.142Z,80
2016-05-18T03:27:15.191Z,76
2016-05-18T03:28:15.225Z,80
2016-05-18T03:29:15.259Z,92
2016-05-18T03:30:15.153Z,96
2016-05-18T03:31:15.343Z,96
2016-05-18T03:32:15.376Z,100
2016-05-18T03:33:15.411Z,100
2016-05-18T03:34:15.444Z,108
2016-05-18T03:35:15.478Z,112
2016-05-18T03:36:15.356Z,112
2016-05-18T03:37:15.389Z,108
2016-05-18T03:38:16.221Z,120
2016-05-18T03:39:15.613Z,132
2016-05-18T03:40:15.663Z,136
2016-05-18T03:41:15.697Z,132
2016-05-18T03:42:15.731Z,144
2016-05-18T03:43:15.766Z,164
2016-05-18T03:44:15.816Z,172
2016-05-18T03:45:15.849Z,184
2016-05-18T03:46:15.883Z,200
2016-05-18T03:47:15.917Z,200
2016-05-18T03:48:15.951Z,188
2016-05-18T03:49:15.985Z,180
2016-05-18T03:50:16.019Z,168
2016-05-18T03:51:16.068Z,176
2016-05-18T03:52:16.102Z,180
2016-05-18T03:53:16.135Z,184
2016-05-18T03:54:16.171Z,172
2016-05-18T03:55:16.204Z,172
2016-05-18T03:56:16.238Z,180
2016-05-18T03:57:16.288Z,180
2016-05-18T03:58:16.165Z,200
2016-05-18T03:59:16.356Z,200
2016-05-18T04:00:16.389Z,192
2016-05-18T04:01:16.439Z,196
2016-05-18T04:02:16.457Z,216
2016-05-18T04:03:16.507Z,264
2016-05-18T04:04:16.540Z,292
2016-05-18T04:05:16.434Z,316
2016-05-18T04:06:16.625Z,344
2016-05-18T04:07:16.658Z,324
2016-05-18T04:08:16.614Z,324
2016-05-18T04:09:16.726Z,360
2016-05-18T04:10:16.760Z,308
2016-05-18T04:11:16.669Z,316
2016-05-18T04:12:16.828Z,332
2016-05-18T04:13:16.862Z,344
2016-05-18T04:14:16.927Z,368
2016-05-18T04:15:16.945Z,360
2016-05-18T04:16:16.979Z,352
2016-05-18T04:17:17.013Z,352
2016-05-18T04:18:17.063Z,352
2016-05-18T04:19:17.080Z,360
2016-05-18T04:20:17.116Z,348
2016-05-18T04:21:17.165Z,336
2016-05-18T04:22:17.199Z,296
2016-05-18T04:23:17.826Z,240
2016-05-18T04:24:17.266Z,240
2016-05-18T04:25:17.301Z,284
2016-05-18T04:26:17.334Z,352
2016-05-18T04:27:17.369Z,364
2016-05-18T04:28:17.434Z,396
2016-05-18T04:29:17.451Z,444
2016-05-18T04:30:17.485Z,584
2016-05-18T04:31:17.519Z,684
2016-05-18T04:32:17.553Z,688
2016-05-18T04:33:17.447Z,620
2016-05-18T04:34:17.653Z,588
2016-05-18T04:35:17.515Z,548
2016-05-18T04:36:17.706Z,492
2016-05-18T04:37:17.442Z,400
2016-05-18T04:38:17.961Z,340
2016-05-18T04:39:17.823Z,308
2016-05-18T04:40:17.700Z,272
2016-05-18T04:41:17.890Z,256
2016-05-18T04:42:17.924Z,280
2016-05-18T04:43:17.974Z,380
2016-05-18T04:44:18.008Z,440
2016-05-18T04:45:18.058Z,472
2016-05-18T04:46:18.075Z,568
2016-05-18T04:47:18.110Z,636
2016-05-18T04:48:18.143Z,660
2016-05-18T04:49:18.177Z,636
2016-05-18T04:50:18.071Z,652
2016-05-18T04:51:18.105Z,692
2016-05-18T04:52:18.139Z,708
2016-05-18T04:53:18.344Z,732
2016-05-18T04:54:18.379Z,624
2016-05-18T04:55:18.396Z,660
2016-05-18T04:56:18.446Z,688
2016-05-18T04:57:18.323Z,696
2016-05-18T04:58:18.515Z,808
2016-05-18T04:59:18.548Z,800
2016-05-18T05:00:18.582Z,864
2016-05-18T05:01:18.632Z,836
2016-05-18T05:02:18.665Z,756
2016-05-18T05:03:18.699Z,736
2016-05-18T05:04:18.576Z,644
2016-05-18T05:05:18.611Z,532
2016-05-18T05:06:18.661Z,548
2016-05-18T05:07:18.850Z,576
2016-05-18T05:08:19.072Z,624
2016-05-18T05:09:18.920Z,712
2016-05-18T05:10:18.827Z,868
2016-05-18T05:11:19.002Z,696
2016-05-18T05:12:18.708Z,540
2016-05-18T05:13:19.055Z,612
2016-05-18T05:14:19.088Z,760
2016-05-18T05:15:18.981Z,748
2016-05-18T05:16:19.016Z,608
2016-05-18T05:17:19.206Z,720
2016-05-18T05:18:19.240Z,792
2016-05-18T05:19:19.274Z,756
2016-05-18T05:20:19.307Z,764
2016-05-18T05:21:19.357Z,640
2016-05-18T05:22:19.391Z,632
2016-05-18T05:23:19.441Z,744
2016-05-18T05:24:19.460Z,640
2016-05-18T05:25:19.508Z,548
2016-05-18T05:26:19.558Z,672
2016-05-18T05:27:19.576Z,752
2016-05-18T05:28:19.611Z,812
2016-05-18T05:29:19.644Z,992
2016-05-18T05:30:19.693Z,992
2016-05-18T05:31:19.571Z,976
2016-05-18T05:32:19.762Z,784
2016-05-18T05:33:19.796Z,532
2016-05-18T05:34:19.829Z,536
2016-05-18T05:35:19.879Z,572
2016-05-18T05:36:19.756Z,704
2016-05-18T05:37:19.948Z,1088
2016-05-18T05:38:19.981Z,1200
2016-05-18T05:39:20.015Z,1196
2016-05-18T05:40:20.049Z,1020
2016-05-18T05:41:19.942Z,892
2016-05-18T05:42:20.117Z,708
2016-05-18T05:43:20.150Z,668
2016-05-18T05:44:20.216Z,832
2016-05-18T05:45:20.234Z,1100
2016-05-18T05:46:20.268Z,1176
2016-05-18T05:47:20.317Z,984
2016-05-18T05:48:20.352Z,792
2016-05-18T05:49:20.385Z,676
2016-05-18T05:50:20.435Z,556
2016-05-18T05:51:20.313Z,532
2016-05-18T05:52:20.502Z,532
2016-05-18T05:53:20.396Z,548
2016-05-18T05:54:20.446Z,564
2016-05-18T05:55:20.605Z,568
2016-05-18T05:56:20.639Z,564
2016-05-18T05:57:20.689Z,568
2016-05-18T05:58:20.722Z,576
2016-05-18T05:59:20.599Z,584
2016-05-18T06:00:20.774Z,588
2016-05-18T06:01:20.840Z,600
2016-05-18T06:02:20.858Z,608
2016-05-18T06:03:20.907Z,608
2016-05-18T06:04:20.942Z,604
2016-05-18T06:05:20.976Z,620
2016-05-18T06:06:21.009Z,636
2016-05-18T06:07:20.731Z,632
2016-05-18T06:08:21.203Z,664
2016-05-18T06:09:21.126Z,752
2016-05-18T06:10:21.161Z,888
2016-05-18T06:11:21.195Z,948
2016-05-18T06:12:21.244Z,804
2016-05-18T06:13:21.294Z,744
2016-05-18T06:14:21.327Z,648
2016-05-18T06:15:21.346Z,596
2016-05-18T06:16:21.381Z,572
2016-05-18T06:17:21.414Z,556
2016-05-18T06:18:21.447Z,548
2016-05-18T06:19:21.497Z,556
2016-05-18T06:20:21.516Z,560
2016-05-18T06:21:21.566Z,564
2016-05-18T06:22:21.615Z,576
2016-05-18T06:23:22.274Z,584
2016-05-18T06:24:21.699Z,588
2016-05-18T06:25:21.716Z,592
2016-05-18T06:26:21.751Z,596
2016-05-18T06:27:21.800Z,592
2016-05-18T06:28:21.818Z,584
2016-05-18T06:29:21.852Z,576
2016-05-18T06:30:21.902Z,584
2016-05-18T06:31:21.935Z,588
2016-05-18T06:32:21.970Z,596
2016-05-18T06:33:21.848Z,600
2016-05-18T06:34:22.054Z,600
2016-05-18T06:35:22.072Z,600
2016-05-18T06:36:22.168Z,604
2016-05-18T06:37:22.156Z,608
2016-05-18T06:38:21.908Z,608
2016-05-18T06:39:22.223Z,600
2016-05-18T06:40:22.273Z,596
2016-05-18T06:41:22.307Z,592
2016-05-18T06:42:22.340Z,596
2016-05-18T06:43:22.374Z,592
2016-05-18T06:44:22.408Z,596
2016-05-18T06:45:22.458Z,600
2016-05-18T06:46:22.476Z,608
2016-05-18T06:47:22.525Z,608
2016-05-18T06:48:22.561Z,608
2016-05-18T06:49:22.594Z,616
2016-05-18T06:50:22.628Z,620
2016-05-18T06:51:22.662Z,620
2016-05-18T06:52:22.914Z,620
2016-05-18T06:53:23.120Z,624
2016-05-18T06:54:23.405Z,624
2016-05-18T06:55:22.844Z,632
2016-05-18T06:56:22.691Z,636
2016-05-18T06:57:23.491Z,640
2016-05-18T06:58:23.368Z,644
2016-05-18T06:59:22.965Z,648
2016-05-18T07:00:22.999Z,648
2016-05-18T07:01:23.032Z,652
2016-05-18T07:02:23.082Z,656
2016-05-18T07:03:23.101Z,660
2016-05-18T07:04:22.993Z,664
2016-05-18T07:05:23.184Z,668
2016-05-18T07:06:23.218Z,664
2016-05-18T07:07:23.267Z,664
2016-05-18T07:08:23.317Z,668
2016-05-18T07:09:23.335Z,676
2016-05-18T07:10:23.385Z,676
2016-05-18T07:11:23.403Z,676
2016-05-18T07:12:23.437Z,676
2016-05-18T07:13:23.470Z,672
2016-05-18T07:14:23.506Z,672
2016-05-18T07:15:23.570Z,672
2016-05-18T07:16:23.604Z,668
2016-05-18T07:17:23.622Z,676
2016-05-18T07:18:23.656Z,676
2016-05-18T07:19:23.706Z,676
2016-05-18T07:20:23.739Z,680
2016-05-18T07:21:23.789Z,688
2016-05-18T07:22:23.808Z,692
2016-05-18T07:23:24.138Z,696
2016-05-18T07:24:23.891Z,696
2016-05-18T07:25:23.925Z,700
2016-05-18T07:26:23.803Z,704
2016-05-18T07:27:23.993Z,704
2016-05-18T07:28:24.136Z,708
2016-05-18T07:29:24.077Z,712
2016-05-18T07:30:24.111Z,708
2016-05-18T07:31:24.145Z,712
2016-05-18T07:32:24.194Z,724
2016-05-18T07:33:24.227Z,724
2016-05-18T07:34:24.262Z,728
2016-05-18T07:35:24.296Z,728
2016-05-18T07:36:24.330Z,728
2016-05-18T07:37:24.363Z,732
2016-05-18T07:38:24.960Z,728
2016-05-18T07:39:24.290Z,724
2016-05-18T07:40:24.529Z,724
2016-05-18T07:41:24.515Z,732
2016-05-18T07:42:24.549Z,744
2016-05-18T07:43:24.583Z,744
2016-05-18T07:44:24.586Z,736
2016-05-18T07:45:24.667Z,732
2016-05-18T07:46:24.701Z,736
2016-05-18T07:47:24.734Z,736
2016-05-18T07:48:24.768Z,752
2016-05-18T07:49:24.817Z,760
2016-05-18T07:50:24.680Z,768
2016-05-18T07:51:24.730Z,760
2016-05-18T07:52:24.935Z,768
2016-05-18T07:53:24.844Z,764
2016-05-18T07:54:25.003Z,772
2016-05-18T07:55:24.881Z,772
2016-05-18T07:56:25.071Z,792
2016-05-18T07:57:25.105Z,800
2016-05-18T07:58:25.138Z,808
2016-05-18T07:59:25.173Z,816
2016-05-18T08:00:25.223Z,812
2016-05-18T08:01:25.241Z,812
2016-05-18T08:02:25.275Z,824
2016-05-18T08:03:25.027Z,828
2016-05-18T08:04:25.374Z,840
2016-05-18T08:05:25.393Z,848
2016-05-18T08:06:25.441Z,848
2016-05-18T08:07:25.319Z,860
2016-05-18T08:08:25.541Z,860
2016-05-18T08:09:25.560Z,856
2016-05-18T08:10:25.577Z,868
2016-05-18T08:11:25.627Z,876
2016-05-18T08:12:25.504Z,872
2016-05-18T08:13:25.695Z,868
2016-05-18T08:14:25.745Z,868
2016-05-18T08:15:25.778Z,872
2016-05-18T08:16:25.812Z,876
2016-05-18T08:17:26.470Z,892
2016-05-18T08:18:25.958Z,900
2016-05-18T08:19:25.930Z,904
2016-05-18T08:20:29.620Z,912
2016-05-18T08:21:25.998Z,920
2016-05-18T08:22:26.032Z,924
2016-05-18T08:23:26.081Z,920
2016-05-18T08:24:26.287Z,936
2016-05-18T08:25:26.150Z,944
2016-05-18T08:26:26.230Z,948
2016-05-18T08:27:26.227Z,968
2016-05-18T08:28:26.211Z,968
2016-05-18T08:29:26.395Z,972
2016-05-18T08:30:26.315Z,976
2016-05-18T08:31:26.392Z,984
2016-05-18T08:32:26.945Z,984
2016-05-18T08:33:26.666Z,976
2016-05-18T08:34:26.717Z,984
2016-05-18T08:35:26.624Z,984
2016-05-18T08:36:26.831Z,984
2016-05-18T08:37:26.877Z,992
2016-05-18T08:38:26.932Z,992
2016-05-18T08:39:26.971Z,984
2016-05-18T08:40:27.135Z,872
2016-05-18T08:41:27.065Z,880
2016-05-18T08:42:27.089Z,888
2016-05-18T08:43:27.141Z,892
2016-05-18T08:44:27.177Z,892
2016-05-18T08:45:27.213Z,908
2016-05-18T08:46:27.624Z,908
2016-05-18T08:47:27.128Z,916
2016-05-18T08:48:27.179Z,920
2016-05-18T08:49:27.354Z,924
2016-05-18T08:50:27.420Z,944
2016-05-18T08:51:27.439Z,956
2016-05-18T08:52:27.474Z,944
2016-05-18T08:53:27.727Z,944
2016-05-18T08:54:27.573Z,940
2016-05-18T08:55:27.654Z,956
2016-05-18T08:56:27.625Z,960
2016-05-18T08:57:27.659Z,968
2016-05-18T08:58:27.552Z,984
2016-05-18T08:59:27.743Z,976
2016-05-18T09:00:27.621Z,976
2016-05-18T09:01:27.810Z,988
2016-05-18T09:02:27.844Z,1000
2016-05-18T09:03:27.879Z,1020
2016-05-18T09:04:27.772Z,1032
2016-05-18T09:05:27.977Z,1028
2016-05-18T09:06:28.012Z,1028
2016-05-18T09:07:28.029Z,1028
2016-05-18T09:08:28.079Z,1040
2016-05-18T09:09:28.113Z,1040
2016-05-18T09:10:28.163Z,1044
2016-05-18T09:11:28.400Z,1060
2016-05-18T09:12:28.074Z,1060
2016-05-18T09:13:28.124Z,1076
2016-05-18T09:14:28.298Z,1092
2016-05-18T09:15:28.332Z,1096
2016-05-18T09:16:28.382Z,1100
2016-05-18T09:17:28.260Z,1096
2016-05-18T09:18:28.450Z,1092
2016-05-18T09:19:28.484Z,1100
2016-05-18T09:20:28.533Z,1116
2016-05-18T09:21:28.567Z,1132
2016-05-18T09:22:28.445Z,1136
2016-05-18T09:23:28.714Z,1168
2016-05-18T09:24:28.685Z,1224
2016-05-18T09:25:28.719Z,1264
2016-05-18T09:26:28.753Z,1260
2016-05-18T09:27:28.786Z,1212
2016-05-18T09:28:28.836Z,1236
2016-05-18T09:29:28.869Z,1328
2016-05-18T09:30:28.904Z,1340
2016-05-18T09:31:28.938Z,1324
2016-05-18T09:32:28.988Z,1244
2016-05-18T09:33:29.037Z,1212
2016-05-18T09:34:29.055Z,1304
2016-05-18T09:35:28.933Z,1320
2016-05-18T09:36:29.123Z,1616
2016-05-18T09:37:29.157Z,1968
2016-05-18T09:38:29.082Z,1972
2016-05-18T09:39:29.241Z,1716
2016-05-18T09:40:29.274Z,1720
2016-05-18T09:41:29.309Z,1684
2016-05-18T09:42:29.342Z,1644
2016-05-18T09:43:29.392Z,1420
2016-05-18T09:44:29.270Z,1344
2016-05-18T09:45:29.476Z,1440
2016-05-18T09:46:29.509Z,1612
2016-05-18T09:47:29.543Z,1704
2016-05-18T09:48:29.421Z,1808
2016-05-18T09:49:29.611Z,1796
2016-05-18T09:50:29.645Z,1556
2016-05-18T09:51:29.383Z,1440
2016-05-18T09:52:29.729Z,1492
2016-05-18T09:53:29.763Z,1644
2016-05-18T09:54:29.812Z,1620
2016-05-18T09:55:29.847Z,1552
2016-05-18T09:56:29.725Z,1736
2016-05-18T09:57:29.758Z,1884
2016-05-18T09:58:29.964Z,2408
2016-05-18T09:59:29.997Z,2528
2016-05-18T10:00:30.032Z,2512
2016-05-18T10:01:30.066Z,2104
2016-05-18T10:02:30.100Z,1960
2016-05-18T10:03:30.149Z,1836
2016-05-18T10:04:30.183Z,1684
2016-05-18T10:05:30.217Z,1668
2016-05-18T10:06:30.298Z,1792
2016-05-18T10:07:30.301Z,1696
2016-05-18T10:08:30.194Z,1660
2016-05-18T10:09:30.368Z,1668
2016-05-18T10:10:30.262Z,1628
2016-05-18T10:11:30.452Z,1512
2016-05-18T10:12:30.485Z,1500
2016-05-18T10:13:30.520Z,1580
2016-05-18T10:14:30.554Z,1708
2016-05-18T10:15:30.618Z,1720
2016-05-18T10:16:30.653Z,1800
2016-05-18T10:17:30.671Z,1672
2016-05-18T10:18:30.706Z,1548
2016-05-18T10:19:30.754Z,1784
2016-05-18T10:20:30.789Z,2200
2016-05-18T10:21:30.823Z,2152
2016-05-18T10:22:30.856Z,1784
2016-05-18T10:23:30.906Z,1652
2016-05-18T10:24:30.972Z,1732
2016-05-18T10:25:30.989Z,1996
2016-05-18T10:26:31.008Z,1888
2016-05-18T10:27:30.886Z,1860
2016-05-18T10:28:31.091Z,1892
2016-05-18T10:29:31.203Z,1888
2016-05-18T10:30:31.019Z,1816
2016-05-18T10:31:31.053Z,1856
2016-05-18T10:32:31.258Z,1780
2016-05-18T10:33:31.277Z,1784
2016-05-18T10:34:31.405Z,1776
2016-05-18T10:35:31.361Z,1900
2016-05-18T10:36:31.394Z,2300
2016-05-18T10:37:31.427Z,2856
2016-05-18T10:38:31.790Z,2784
2016-05-18T10:39:31.496Z,2188
2016-05-18T10:40:31.546Z,1844
2016-05-18T10:41:31.627Z,1684
2016-05-18T10:42:31.645Z,1416
2016-05-18T10:43:31.648Z,1936
2016-05-18T10:44:31.729Z,2076
2016-05-18T10:45:31.731Z,2488
2016-05-18T10:46:31.796Z,1996
2016-05-18T10:47:31.877Z,1992
2016-05-18T10:48:31.912Z,2244
2016-05-18T10:49:31.882Z,2236
2016-05-18T10:50:31.916Z,2540
2016-05-18T10:51:31.951Z,2932
2016-05-18T10:52:32.000Z,3060
2016-05-18T10:53:32.612Z,2900
2016-05-18T10:54:32.068Z,3032
2016-05-18T10:55:31.789Z,3064
2016-05-18T10:56:32.167Z,3288
2016-05-18T10:57:32.029Z,3448
2016-05-18T10:58:32.219Z,3208
2016-05-18T10:59:32.284Z,2940
2016-05-18T11:00:32.287Z,2320
2016-05-18T11:01:32.322Z,2480
2016-05-18T11:02:32.370Z,3116
2016-05-18T11:03:32.405Z,3380
2016-05-18T11:04:32.438Z,3372
2016-05-18T11:05:32.472Z,3348
2016-05-18T11:06:32.366Z,3192
2016-05-18T11:07:32.416Z,3024
2016-05-18T11:08:32.761Z,2672
2016-05-18T11:09:32.623Z,2348
2016-05-18T11:10:32.674Z,2416
2016-05-18T11:11:32.707Z,2684
2016-05-18T11:12:32.741Z,2916
2016-05-18T11:13:32.822Z,3008
2016-05-18T11:14:32.824Z,2944
2016-05-18T11:15:32.686Z,2952
2016-05-18T11:16:32.924Z,3132
2016-05-18T11:17:32.973Z,3252
2016-05-18T11:18:32.960Z,3368
2016-05-18T11:19:32.994Z,3428
2016-05-18T11:20:32.887Z,3812
2016-05-18T11:21:33.125Z,4132
2016-05-18T11:22:33.112Z,4124
2016-05-18T11:23:32.864Z,3136
2016-05-18T11:24:33.179Z,2564
2016-05-18T11:25:33.229Z,2376
2016-05-18T11:26:33.106Z,2308
2016-05-18T11:27:33.298Z,2212
2016-05-18T11:28:33.331Z,2064
2016-05-18T11:29:33.380Z,2048
2016-05-18T11:30:33.399Z,2240
2016-05-18T11:31:33.448Z,2448
2016-05-18T11:32:33.482Z,2560
2016-05-18T11:33:33.516Z,2684
2016-05-18T11:34:33.410Z,2784
2016-05-18T11:35:33.600Z,2900
2016-05-18T11:36:33.477Z,2948
2016-05-18T11:37:33.527Z,2936
2016-05-18T11:38:33.717Z,3120
2016-05-18T11:39:33.751Z,3504
2016-05-18T11:40:33.785Z,3804
2016-05-18T11:41:33.819Z,4048
2016-05-18T11:42:33.853Z,4144
2016-05-18T11:43:33.902Z,4208
2016-05-18T11:44:33.937Z,4232
2016-05-18T11:45:33.970Z,4100
2016-05-18T11:46:34.004Z,3976
2016-05-18T11:47:34.038Z,3864
2016-05-18T11:48:34.072Z,3788
2016-05-18T11:49:34.122Z,3788
2016-05-18T11:50:34.156Z,3848
2016-05-18T11:51:34.189Z,3892
2016-05-18T11:52:34.240Z,3952
2016-05-18T11:53:33.961Z,4024
2016-05-18T11:54:34.307Z,4124
2016-05-18T11:55:34.341Z,4052
2016-05-18T11:56:34.375Z,4072
2016-05-18T11:57:34.425Z,4136
2016-05-18T11:58:34.458Z,4188
2016-05-18T11:59:34.492Z,4300
2016-05-18T12:00:34.386Z,4344
2016-05-18T12:01:34.575Z,4364
2016-05-18T12:02:34.610Z,4220
2016-05-18T12:03:34.644Z,4036
2016-05-18T12:04:34.694Z,4076
2016-05-18T12:05:34.727Z,3968
2016-05-18T12:06:34.777Z,3980
2016-05-18T12:07:35.124Z,4540
2016-05-18T12:08:34.876Z,4456
2016-05-18T12:09:34.894Z,4348
2016-05-18T12:10:34.757Z,4048
2016-05-18T12:11:34.963Z,3884
2016-05-18T12:12:34.980Z,3816
2016-05-18T12:13:34.874Z,3720
2016-05-18T12:14:35.063Z,3660
2016-05-18T12:15:34.957Z,3652
2016-05-18T12:16:35.148Z,3540
2016-05-18T12:17:35.181Z,3288
2016-05-18T12:18:35.216Z,2996
2016-05-18T12:19:35.296Z,1300
2016-05-18T12:20:35.314Z,1324
2016-05-18T12:21:35.177Z,1284
2016-05-18T12:22:35.382Z,1208
2016-05-18T12:23:35.884Z,1208
2016-05-18T12:24:35.810Z,1192
2016-05-18T12:25:35.328Z,1128
2016-05-18T12:26:35.362Z,1064
2016-05-18T12:27:35.552Z,1040
2016-05-18T12:28:35.617Z,1016
2016-05-18T12:29:35.636Z,960
2016-05-18T12:30:35.669Z,860
2016-05-18T12:31:35.563Z,796
2016-05-18T12:32:35.753Z,740
2016-05-18T12:33:35.786Z,696
2016-05-18T12:34:35.822Z,660
2016-05-18T12:35:35.870Z,632
2016-05-18T12:36:35.904Z,620
2016-05-18T12:37:35.955Z,604
2016-05-18T12:38:36.738Z,588
2016-05-18T12:39:36.021Z,556
2016-05-18T12:40:36.055Z,544
2016-05-18T12:41:36.152Z,568
2016-05-18T12:42:36.124Z,592
2016-05-18T12:43:36.173Z,600
2016-05-18T12:44:36.207Z,628
2016-05-18T12:45:36.241Z,660
2016-05-18T12:46:36.275Z,696
2016-05-18T12:47:36.340Z,700
2016-05-18T12:48:36.358Z,708
2016-05-18T12:49:36.393Z,740
2016-05-18T12:50:36.426Z,776
2016-05-18T12:51:36.476Z,796
2016-05-18T12:52:36.526Z,820
2016-05-18T12:53:36.403Z,852
2016-05-18T12:54:36.578Z,908
2016-05-18T12:55:36.628Z,1012
2016-05-18T12:56:36.662Z,1092
2016-05-18T12:57:36.695Z,1068
2016-05-18T12:58:36.745Z,1004
2016-05-18T12:59:36.778Z,976
2016-05-18T13:00:36.812Z,952
2016-05-18T13:01:36.690Z,860
2016-05-18T13:02:36.943Z,796
2016-05-18T13:03:36.914Z,772
2016-05-18T13:04:36.964Z,776
2016-05-18T13:05:36.998Z,720
2016-05-18T13:06:37.064Z,716
2016-05-18T13:07:37.081Z,692
2016-05-18T13:08:37.147Z,724
2016-05-18T13:09:37.197Z,760
2016-05-18T13:10:37.058Z,788
2016-05-18T13:11:37.280Z,824
2016-05-18T13:12:37.266Z,804
2016-05-18T13:13:37.301Z,772
2016-05-18T13:14:37.038Z,740
2016-05-18T13:15:37.228Z,708
2016-05-18T13:16:37.418Z,668
2016-05-18T13:17:37.515Z,640
2016-05-18T13:18:37.565Z,592
2016-05-18T13:19:37.660Z,560
2016-05-18T13:20:37.570Z,544
2016-05-18T13:21:37.604Z,540
2016-05-18T13:22:37.653Z,524
2016-05-18T13:23:37.984Z,500
2016-05-18T13:24:37.564Z,476
2016-05-18T13:25:37.754Z,468
2016-05-18T13:26:37.789Z,468
2016-05-18T13:27:37.932Z,460
2016-05-18T13:28:37.903Z,448
2016-05-18T13:29:37.984Z,436
2016-05-18T13:30:37.939Z,432
2016-05-18T13:31:37.990Z,408
2016-05-18T13:32:38.023Z,392
2016-05-18T13:33:38.073Z,392
2016-05-18T13:34:38.092Z,384
2016-05-18T13:35:38.126Z,368
2016-05-18T13:36:38.034Z,356
2016-05-18T13:37:38.069Z,360
2016-05-18T13:38:38.243Z,332
2016-05-18T13:39:38.292Z,332
2016-05-18T13:40:38.342Z,340
2016-05-18T13:41:38.219Z,340
2016-05-18T13:42:38.238Z,340
2016-05-18T13:43:38.272Z,344
2016-05-18T13:44:38.494Z,340
2016-05-18T13:45:38.543Z,352
2016-05-18T13:46:38.546Z,356
2016-05-18T13:47:38.611Z,384
2016-05-18T13:48:38.660Z,416
2016-05-18T13:49:38.663Z,464
2016-05-18T13:50:38.713Z,516
2016-05-18T13:51:38.824Z,536
2016-05-18T13:52:38.781Z,444